createdAt,value
2022-10-04T00:01:53.437Z,13.70
2022-10-04T00:04:22.801Z,13.70
2022-10-04T00:06:53.594Z,13.70
2022-10-04T00:09:23.416Z,13.70
2022-10-04T00:11:49.347Z,13.70
2022-10-04T00:14:20.937Z,13.70
2022-10-04T00:16:46.925Z,13.70
2022-10-04T00:19:41.910Z,13.70
2022-10-04T00:22:25.108Z,13.70
2022-10-04T00:25:19.216Z,13.70
2022-10-04T00:28:43.486Z,13.70
2022-10-04T00:31:25.801Z,13.70
2022-10-04T00:33:54.494Z,13.70
2022-10-04T00:36:42.927Z,13.70
2022-10-04T00:39:40.295Z,13.70
2022-10-04T00:42:29.827Z,13.80
2022-10-04T00:44:58.713Z,13.70
2022-10-04T00:47:31.862Z,13.70
2022-10-04T00:50:08.003Z,13.70
2022-10-04T00:52:36.773Z,13.70
2022-10-04T00:55:05.242Z,13.70
2022-10-04T00:57:33.284Z,13.70
2022-10-04T00:59:59.866Z,13.70
2022-10-04T01:02:30.352Z,13.70
2022-10-04T01:05:00.718Z,13.60
2022-10-04T01:07:30.252Z,13.70
2022-10-04T01:09:58.223Z,13.70
2022-10-04T01:12:43.785Z,13.60
2022-10-04T01:15:12.279Z,13.60
2022-10-04T01:17:35.925Z,13.60
2022-10-04T01:20:00.894Z,13.50
2022-10-04T01:22:44.713Z,13.50
2022-10-04T01:25:08.557Z,13.40
2022-10-04T01:27:43.167Z,13.40
2022-10-04T01:30:29.494Z,13.40
2022-10-04T01:32:53.344Z,13.50
2022-10-04T01:35:19.170Z,13.40
2022-10-04T01:37:44.220Z,13.50
2022-10-04T01:40:10.231Z,13.40
2022-10-04T01:42:41.163Z,13.50
2022-10-04T01:45:14.693Z,13.40
2022-10-04T01:47:46.397Z,13.50
2022-10-04T01:50:18.380Z,13.40
2022-10-04T01:52:47.396Z,13.50
2022-10-04T01:55:17.259Z,13.50
2022-10-04T01:57:47.892Z,13.40
2022-10-04T02:00:14.962Z,13.50
2022-10-04T02:02:47.582Z,13.40
2022-10-04T02:05:17.857Z,13.40
2022-10-04T02:07:45.221Z,13.40
2022-10-04T02:10:13.184Z,13.40
2022-10-04T02:12:38.719Z,13.40
2022-10-04T02:15:06.111Z,13.40
2022-10-04T02:17:33.050Z,13.40
2022-10-04T02:19:58.403Z,13.40
2022-10-04T02:22:24.812Z,13.40
2022-10-04T02:24:51.906Z,13.40
2022-10-04T02:27:16.275Z,13.30
2022-10-04T02:29:39.902Z,13.30
2022-10-04T02:32:23.682Z,13.20
2022-10-04T02:34:49.082Z,13.30
2022-10-04T02:37:14.203Z,13.20
2022-10-04T02:39:41.972Z,13.20
2022-10-04T02:42:15.339Z,13.20
2022-10-04T02:44:44.192Z,13.10
2022-10-04T02:47:15.331Z,13.00
2022-10-04T02:49:44.402Z,13.00
2022-10-04T02:52:11.735Z,13.00
2022-10-04T02:54:43.619Z,12.90
2022-10-04T02:57:19.348Z,12.80
2022-10-04T02:59:42.984Z,12.70
2022-10-04T03:02:29.694Z,12.70
2022-10-04T03:04:59.585Z,12.60
2022-10-04T03:07:24.714Z,12.60
2022-10-04T03:09:48.726Z,12.60
2022-10-04T03:12:14.814Z,12.50
2022-10-04T03:14:40.106Z,12.50
2022-10-04T03:17:05.254Z,12.40
2022-10-04T03:19:32.181Z,12.40
2022-10-04T03:21:59.480Z,12.30
2022-10-04T03:24:29.519Z,12.20
2022-10-04T03:26:56.510Z,12.20
2022-10-04T03:29:25.719Z,12.10
2022-10-04T03:31:52.756Z,12.00
2022-10-04T03:34:20.086Z,12.00
2022-10-04T03:36:44.839Z,11.90
2022-10-04T03:39:12.436Z,11.90
2022-10-04T03:41:39.826Z,11.90
2022-10-04T03:44:05.155Z,11.90
2022-10-04T03:46:30.489Z,11.80
2022-10-04T03:48:56.435Z,11.80
2022-10-04T03:51:23.625Z,11.80
2022-10-04T03:53:49.875Z,11.80
2022-10-04T03:56:17.505Z,11.80
2022-10-04T03:58:41.608Z,11.80
2022-10-04T04:01:26.717Z,11.80
2022-10-04T04:04:02.715Z,11.80
2022-10-04T04:06:31.780Z,11.80
2022-10-04T04:08:56.748Z,11.70
2022-10-04T04:11:26.678Z,11.70
2022-10-04T04:13:59.371Z,11.70
2022-10-04T04:16:26.679Z,11.70
2022-10-04T04:18:51.498Z,11.60
2022-10-04T04:21:20.479Z,11.60
2022-10-04T04:23:50.411Z,11.60
2022-10-04T04:26:21.739Z,11.60
2022-10-04T04:28:50.179Z,11.50
2022-10-04T04:31:22.395Z,11.50
2022-10-04T04:33:50.632Z,11.50
2022-10-04T04:36:18.213Z,11.40
2022-10-04T04:39:01.907Z,11.40
2022-10-04T04:41:27.707Z,11.40
2022-10-04T04:43:52.027Z,11.40
2022-10-04T04:46:27.205Z,11.40
2022-10-04T04:49:01.263Z,11.40
2022-10-04T04:51:26.804Z,11.30
2022-10-04T04:53:51.432Z,11.30
2022-10-04T04:56:21.504Z,11.30
2022-10-04T04:58:47.710Z,11.30
2022-10-04T05:01:25.715Z,11.30
2022-10-04T05:04:02.957Z,11.20
2022-10-04T05:06:31.006Z,11.30
2022-10-04T05:08:54.759Z,11.30
2022-10-04T05:11:22.542Z,11.30
2022-10-04T05:13:51.138Z,11.30
2022-10-04T05:16:21.886Z,11.30
2022-10-04T05:18:46.335Z,11.40
2022-10-04T05:21:19.000Z,11.40
2022-10-04T05:23:44.103Z,11.40
2022-10-04T05:26:13.187Z,11.40
2022-10-04T05:28:37.036Z,11.50
2022-10-04T05:31:30.561Z,11.50
2022-10-04T05:33:58.618Z,11.50
2022-10-04T05:36:52.151Z,11.60
2022-10-04T05:39:28.728Z,11.70
2022-10-04T05:42:01.393Z,11.70
2022-10-04T05:44:30.827Z,11.80
2022-10-04T05:46:56.376Z,11.90
2022-10-04T05:49:22.283Z,12.00
2022-10-04T05:51:51.681Z,12.00
2022-10-04T05:54:22.128Z,12.10
2022-10-04T05:57:22.017Z,12.20
2022-10-04T06:00:10.599Z,12.30
2022-10-04T06:03:28.866Z,12.40
2022-10-04T06:05:56.278Z,12.50
2022-10-04T06:08:36.055Z,12.60
2022-10-04T06:11:16.180Z,12.60
2022-10-04T06:14:33.782Z,12.70
2022-10-04T06:17:30.220Z,12.70
2022-10-04T06:20:30.164Z,12.80
2022-10-04T06:23:00.978Z,12.90
2022-10-04T06:25:32.728Z,12.90
2022-10-04T06:28:07.716Z,12.90
2022-10-04T06:30:44.902Z,13.10
2022-10-04T06:33:30.834Z,13.20
2022-10-04T06:36:38.967Z,13.30
2022-10-04T06:39:31.719Z,13.30
2022-10-04T06:42:43.710Z,13.40
2022-10-04T06:45:53.574Z,13.50
2022-10-04T06:48:45.782Z,13.40
2022-10-04T06:51:34.919Z,13.50
2022-10-04T06:54:13.627Z,13.50
2022-10-04T06:57:10.084Z,13.50
2022-10-04T07:00:06.836Z,13.40
2022-10-04T07:02:40.807Z,13.60
2022-10-04T07:05:16.615Z,13.60
2022-10-04T07:07:47.508Z,13.60
2022-10-04T07:10:27.603Z,13.60
2022-10-04T07:13:08.024Z,13.70
2022-10-04T07:15:37.826Z,13.70
2022-10-04T07:18:12.056Z,13.80
2022-10-04T07:20:37.028Z,13.80
2022-10-04T07:23:06.672Z,13.80
2022-10-04T07:25:35.492Z,13.80
2022-10-04T07:28:22.657Z,13.90
2022-10-04T07:30:53.613Z,13.90
2022-10-04T07:33:23.910Z,13.90
2022-10-04T07:35:53.163Z,14.00
2022-10-04T07:38:25.039Z,13.90
2022-10-04T07:41:08.511Z,14.00
2022-10-04T07:43:35.838Z,14.00
2022-10-04T07:46:07.881Z,14.10
2022-10-04T07:48:33.231Z,14.10
2022-10-04T07:51:09.459Z,14.20
2022-10-04T07:53:40.225Z,14.20
2022-10-04T07:56:12.275Z,14.20
2022-10-04T07:58:47.846Z,14.20
2022-10-04T08:01:27.657Z,14.20
2022-10-04T08:04:10.814Z,14.10
2022-10-04T08:06:40.335Z,14.20
2022-10-04T08:09:25.836Z,14.30
2022-10-04T08:12:01.784Z,14.40
2022-10-04T08:14:38.322Z,14.60
2022-10-04T08:17:16.675Z,14.70
2022-10-04T08:19:59.811Z,14.90
2022-10-04T08:22:41.192Z,14.90
2022-10-04T08:25:16.922Z,15.00
2022-10-04T08:28:20.464Z,15.00
2022-10-04T08:31:04.496Z,15.00
2022-10-04T08:33:47.957Z,15.30
2022-10-04T08:36:31.639Z,15.30
2022-10-04T08:38:59.436Z,15.40
2022-10-04T08:42:28.264Z,15.50
2022-10-04T08:45:54.289Z,15.60
2022-10-04T08:49:05.039Z,15.70
2022-10-04T08:52:24.412Z,15.70
2022-10-04T08:55:45.188Z,15.60
2022-10-04T08:58:17.387Z,15.80
2022-10-04T09:01:00.346Z,15.80
2022-10-04T09:04:23.429Z,15.80
2022-10-04T09:06:57.472Z,15.90
2022-10-04T09:10:13.556Z,16.00
2022-10-04T09:13:04.416Z,16.10
2022-10-04T09:15:51.646Z,16.30
2022-10-04T09:19:01.250Z,16.40
2022-10-04T09:21:50.933Z,16.60
2022-10-04T09:25:09.174Z,16.60
2022-10-04T09:27:56.459Z,16.60
2022-10-04T09:30:21.447Z,16.70
2022-10-04T09:33:27.220Z,16.90
2022-10-04T09:36:21.122Z,17.00
2022-10-04T09:39:44.766Z,16.90
2022-10-04T09:42:35.606Z,16.80
2022-10-04T09:45:32.499Z,16.70
2022-10-04T09:48:30.082Z,16.70
2022-10-04T09:51:45.257Z,16.90
2022-10-04T09:54:55.156Z,16.70
2022-10-04T09:57:31.300Z,17.00
2022-10-04T10:00:18.629Z,17.20
2022-10-04T10:03:43.557Z,17.40
2022-10-04T10:06:47.071Z,17.40
2022-10-04T10:09:46.600Z,17.80
2022-10-04T10:12:47.482Z,17.80
2022-10-04T10:15:25.886Z,18.00
2022-10-04T10:18:01.263Z,18.20
2022-10-04T10:21:16.125Z,18.20
2022-10-04T10:24:21.637Z,18.10
2022-10-04T10:27:02.200Z,18.10
2022-10-04T10:30:15.740Z,18.30
2022-10-04T10:33:32.196Z,18.70
2022-10-04T10:36:28.199Z,18.70
2022-10-04T10:39:14.766Z,18.60
2022-10-04T10:42:03.586Z,18.60
2022-10-04T10:45:04.064Z,18.30
2022-10-04T10:47:45.107Z,18.40
2022-10-04T10:50:58.640Z,18.70
2022-10-04T10:53:53.846Z,18.70
2022-10-04T10:56:45.119Z,18.80
2022-10-04T11:00:07.754Z,18.70
2022-10-04T11:03:13.060Z,18.60
2022-10-04T11:06:15.651Z,18.60
2022-10-04T11:09:23.463Z,18.60
2022-10-04T11:12:23.753Z,18.80
2022-10-04T11:15:49.543Z,18.80
2022-10-04T11:19:08.561Z,18.60
2022-10-04T11:22:17.297Z,18.70
2022-10-04T11:25:43.115Z,18.90
2022-10-04T11:28:16.706Z,19.10
2022-10-04T11:31:18.158Z,19.00
2022-10-04T11:34:25.567Z,19.00
2022-10-04T11:37:03.255Z,18.70
2022-10-04T11:40:03.983Z,18.70
2022-10-04T11:42:57.218Z,18.70
2022-10-04T11:45:57.633Z,18.90
2022-10-04T11:48:35.969Z,18.90
2022-10-04T11:51:36.043Z,19.10
2022-10-04T11:54:47.924Z,19.30
2022-10-04T11:57:31.216Z,19.50
2022-10-04T12:00:08.714Z,19.60
2022-10-04T12:03:19.228Z,19.50
2022-10-04T12:06:07.932Z,19.50
2022-10-04T12:08:49.602Z,19.40
2022-10-04T12:12:05.730Z,19.40
2022-10-04T12:14:44.245Z,19.30
2022-10-04T12:17:52.969Z,19.40
2022-10-04T12:21:16.095Z,19.00
2022-10-04T12:24:11.826Z,19.00
2022-10-04T12:27:31.826Z,19.00
2022-10-04T12:30:30.890Z,19.20
2022-10-04T12:33:14.684Z,19.40
2022-10-04T12:36:01.454Z,19.30
2022-10-04T12:38:56.326Z,19.50
2022-10-04T12:41:41.680Z,19.50
2022-10-04T12:44:27.599Z,19.10
2022-10-04T12:47:07.799Z,18.70
2022-10-04T12:49:45.655Z,18.80
2022-10-04T12:52:17.162Z,18.80
2022-10-04T12:54:45.585Z,18.70
2022-10-04T12:57:47.988Z,18.70
2022-10-04T13:00:22.880Z,18.80
2022-10-04T13:03:31.998Z,19.10
2022-10-04T13:06:11.286Z,19.00
2022-10-04T13:08:53.192Z,19.20
2022-10-04T13:11:39.266Z,19.40
2022-10-04T13:14:51.820Z,19.60
2022-10-04T13:17:35.690Z,19.30
2022-10-04T13:20:38.755Z,19.00
2022-10-04T13:23:12.391Z,19.20
2022-10-04T13:26:04.294Z,19.30
2022-10-04T13:28:34.632Z,19.30
2022-10-04T13:31:05.400Z,19.20
2022-10-04T13:33:40.628Z,19.30
2022-10-04T13:36:09.827Z,19.50
2022-10-04T13:39:09.462Z,19.60
2022-10-04T13:42:01.840Z,19.50
2022-10-04T13:44:57.897Z,19.50
2022-10-04T13:47:39.515Z,19.70
2022-10-04T13:50:30.627Z,19.70
2022-10-04T13:53:23.670Z,19.50
2022-10-04T13:56:13.162Z,19.50
2022-10-04T13:58:46.859Z,19.30
2022-10-04T14:01:58.507Z,19.00
2022-10-04T14:04:51.796Z,19.10
2022-10-04T14:08:19.414Z,19.20
2022-10-04T14:11:33.712Z,19.20
2022-10-04T14:14:23.959Z,19.20
2022-10-04T14:17:15.439Z,19.00
2022-10-04T14:20:24.101Z,19.10
2022-10-04T14:23:22.115Z,18.90
2022-10-04T14:26:37.227Z,18.80
2022-10-04T14:29:34.527Z,18.50
2022-10-04T14:32:32.247Z,18.70
2022-10-04T14:35:05.119Z,18.50
2022-10-04T14:38:06.226Z,18.30
2022-10-04T14:40:48.882Z,18.40
2022-10-04T14:44:17.253Z,18.50
2022-10-04T14:46:53.267Z,18.40
2022-10-04T14:49:25.855Z,18.30
2022-10-04T14:52:06.774Z,18.20
2022-10-04T14:54:46.195Z,18.10
2022-10-04T14:57:21.017Z,18.00
2022-10-04T15:00:09.475Z,18.10
2022-10-04T15:03:17.047Z,18.00
2022-10-04T15:06:21.369Z,17.90
2022-10-04T15:09:37.722Z,17.80
2022-10-04T15:12:45.797Z,17.70
2022-10-04T15:15:55.615Z,17.60
2022-10-04T15:18:53.805Z,17.70
2022-10-04T15:21:47.542Z,17.70
2022-10-04T15:24:28.010Z,17.60
2022-10-04T15:27:50.407Z,17.50
2022-10-04T15:30:33.019Z,17.50
2022-10-04T15:33:15.216Z,17.50
2022-10-04T15:35:50.075Z,17.50
2022-10-04T15:38:26.164Z,17.50
2022-10-04T15:41:03.331Z,17.50
2022-10-04T15:43:36.136Z,17.40
2022-10-04T15:46:26.814Z,17.40
2022-10-04T15:49:28.064Z,17.20
2022-10-04T15:52:19.008Z,17.20
2022-10-04T15:55:21.562Z,17.10
2022-10-04T15:58:32.455Z,17.10
2022-10-04T16:01:33.417Z,17.00
2022-10-04T16:04:43.047Z,16.90
2022-10-04T16:07:40.306Z,16.80
2022-10-04T16:10:19.827Z,16.80
2022-10-04T16:13:08.095Z,16.70
2022-10-04T16:15:34.680Z,16.50
2022-10-04T16:18:18.997Z,16.50
2022-10-04T16:21:18.850Z,16.50
2022-10-04T16:23:43.912Z,16.30
2022-10-04T16:26:11.027Z,16.20
2022-10-04T16:29:18.401Z,16.20
2022-10-04T16:31:52.475Z,16.10
2022-10-04T16:34:51.523Z,16.00
2022-10-04T16:37:31.613Z,15.90
2022-10-04T16:40:05.607Z,15.80
2022-10-04T16:42:39.875Z,15.70
2022-10-04T16:45:51.756Z,15.70
2022-10-04T16:48:29.179Z,15.60
2022-10-04T16:51:26.181Z,15.40
2022-10-04T16:53:59.507Z,15.40
2022-10-04T16:56:24.910Z,15.30
2022-10-04T16:58:59.303Z,15.20
2022-10-04T17:02:17.062Z,15.10
2022-10-04T17:05:18.212Z,15.00
2022-10-04T17:08:07.335Z,14.90
2022-10-04T17:10:38.918Z,14.80
2022-10-04T17:13:20.391Z,14.70
2022-10-04T17:15:50.226Z,14.60
2022-10-04T17:18:32.774Z,14.50
2022-10-04T17:21:00.419Z,14.40
2022-10-04T17:24:03.496Z,14.30
2022-10-04T17:26:44.527Z,14.30
2022-10-04T17:29:28.811Z,14.20
2022-10-04T17:32:01.191Z,14.10
2022-10-04T17:34:39.979Z,14.00
2022-10-04T17:37:20.439Z,14.00
2022-10-04T17:39:54.595Z,13.90
2022-10-04T17:42:38.168Z,13.90
2022-10-04T17:45:32.608Z,13.80
2022-10-04T17:48:20.935Z,13.70
2022-10-04T17:51:12.518Z,13.60
2022-10-04T17:53:55.848Z,13.50
2022-10-04T17:56:31.858Z,13.50
2022-10-04T17:58:59.076Z,13.40
2022-10-04T18:01:31.841Z,13.40
2022-10-04T18:04:07.563Z,13.20
2022-10-04T18:06:37.240Z,13.20
2022-10-04T18:09:04.988Z,13.20
2022-10-04T18:11:43.795Z,13.10
2022-10-04T18:14:13.541Z,13.10
2022-10-04T18:16:51.302Z,13.00
2022-10-04T18:19:37.358Z,13.00
2022-10-04T18:22:15.137Z,12.90
2022-10-04T18:24:38.764Z,12.90
2022-10-04T18:27:19.608Z,12.80
2022-10-04T18:29:46.571Z,12.80
2022-10-04T18:32:33.045Z,12.70
2022-10-04T18:34:58.059Z,12.60
2022-10-04T18:37:31.017Z,12.60
2022-10-04T18:39:55.834Z,12.60
2022-10-04T18:42:26.982Z,12.50
2022-10-04T18:44:59.404Z,12.50
2022-10-04T18:47:35.308Z,12.40
2022-10-04T18:50:04.784Z,12.40
2022-10-04T18:52:41.979Z,12.30
2022-10-04T18:55:22.442Z,12.30
2022-10-04T18:58:14.552Z,12.30
2022-10-04T19:01:02.738Z,12.20
2022-10-04T19:03:38.261Z,12.10
2022-10-04T19:06:09.592Z,12.00
2022-10-04T19:08:45.299Z,12.00
2022-10-04T19:11:15.070Z,12.00
2022-10-04T19:13:48.441Z,11.90
2022-10-04T19:16:26.069Z,11.90
2022-10-04T19:19:01.697Z,11.90
2022-10-04T19:21:43.059Z,11.90
2022-10-04T19:24:42.476Z,11.80
2022-10-04T19:27:12.150Z,11.80
2022-10-04T19:29:56.871Z,11.70
2022-10-04T19:32:29.278Z,11.70
2022-10-04T19:35:02.742Z,11.80
2022-10-04T19:37:32.691Z,11.80
2022-10-04T19:40:11.282Z,11.70
2022-10-04T19:42:46.168Z,11.70
2022-10-04T19:45:27.112Z,11.70
2022-10-04T19:47:56.226Z,11.70
2022-10-04T19:50:23.903Z,11.70
2022-10-04T19:52:54.531Z,11.70
2022-10-04T19:55:26.353Z,11.70
2022-10-04T19:57:54.963Z,11.60
2022-10-04T20:00:22.201Z,11.60
2022-10-04T20:02:48.646Z,11.60
2022-10-04T20:05:20.200Z,11.60
2022-10-04T20:07:50.980Z,11.60
2022-10-04T20:10:33.516Z,11.60
2022-10-04T20:13:21.082Z,11.50
2022-10-04T20:15:49.273Z,11.50
2022-10-04T20:19:01.059Z,11.50
2022-10-04T20:21:32.147Z,11.50
2022-10-04T20:23:57.034Z,11.40
2022-10-04T20:26:54.826Z,11.40
2022-10-04T20:30:06.758Z,11.40
2022-10-04T20:33:01.038Z,11.40
2022-10-04T20:36:03.418Z,11.40
2022-10-04T20:38:53.443Z,11.30
2022-10-04T20:42:03.817Z,11.30
2022-10-04T20:44:55.156Z,11.30
2022-10-04T20:47:41.610Z,11.30
2022-10-04T20:50:22.264Z,11.20
2022-10-04T20:52:48.735Z,11.10
2022-10-04T20:55:20.758Z,11.10
2022-10-04T20:57:44.406Z,11.10
2022-10-04T21:00:20.092Z,11.10
2022-10-04T21:02:43.691Z,11.10
2022-10-04T21:05:16.611Z,11.10
2022-10-04T21:07:40.286Z,11.10
2022-10-04T21:10:17.575Z,11.10
2022-10-04T21:12:41.172Z,11.10
2022-10-04T21:15:08.517Z,11.10
2022-10-04T21:17:37.874Z,11.10
2022-10-04T21:20:01.564Z,11.10
2022-10-04T21:22:39.817Z,11.10
2022-10-04T21:25:07.754Z,11.10
2022-10-04T21:27:34.280Z,11.10
2022-10-04T21:29:58.614Z,11.10
2022-10-04T21:32:22.202Z,11.10
2022-10-04T21:34:53.452Z,11.20
2022-10-04T21:37:18.347Z,11.20
2022-10-04T21:39:43.517Z,11.20
2022-10-04T21:42:07.341Z,11.20
2022-10-04T21:44:30.897Z,11.30
2022-10-04T21:46:54.559Z,11.30
2022-10-04T21:49:18.097Z,11.30
2022-10-04T21:51:41.685Z,11.30
2022-10-04T21:54:05.832Z,11.30
2022-10-04T21:56:30.839Z,11.30
2022-10-04T21:58:54.447Z,11.30
2022-10-04T22:01:18.125Z,11.30
2022-10-04T22:03:41.663Z,11.30
2022-10-04T22:06:05.529Z,11.30
2022-10-04T22:08:29.060Z,11.30
2022-10-04T22:10:57.455Z,11.30
2022-10-04T22:13:22.737Z,11.20
2022-10-04T22:15:46.311Z,11.30
2022-10-04T22:18:09.951Z,11.30
2022-10-04T22:20:33.788Z,11.30
2022-10-04T22:22:58.044Z,11.20
2022-10-04T22:25:24.048Z,11.30
2022-10-04T22:27:47.860Z,11.20
2022-10-04T22:30:26.216Z,11.20
2022-10-04T22:32:50.202Z,11.20
2022-10-04T22:35:16.815Z,11.10
2022-10-04T22:37:40.375Z,11.10
2022-10-04T22:40:04.155Z,11.10
2022-10-04T22:42:32.343Z,11.10
2022-10-04T22:44:55.847Z,11.00
2022-10-04T22:47:20.812Z,11.00
2022-10-04T22:49:47.058Z,10.90
2022-10-04T22:52:15.870Z,10.90
2022-10-04T22:54:46.991Z,10.90
2022-10-04T22:57:11.598Z,10.90
2022-10-04T22:59:39.153Z,10.80
2022-10-04T23:02:12.596Z,10.80
2022-10-04T23:04:37.846Z,10.80
2022-10-04T23:07:01.399Z,10.80
2022-10-04T23:09:25.055Z,10.70
2022-10-04T23:11:48.718Z,10.70
2022-10-04T23:14:12.630Z,10.70
2022-10-04T23:16:37.632Z,10.70
2022-10-04T23:19:10.887Z,10.60
2022-10-04T23:21:38.681Z,10.60
2022-10-04T23:24:15.646Z,10.60
2022-10-04T23:26:41.780Z,10.60
2022-10-04T23:29:08.131Z,10.50
2022-10-04T23:31:31.880Z,10.50
2022-10-04T23:33:58.439Z,10.40
2022-10-04T23:36:23.195Z,10.40
2022-10-04T23:38:52.867Z,10.40
2022-10-04T23:41:17.470Z,10.40
2022-10-04T23:43:41.178Z,10.30
2022-10-04T23:46:15.917Z,10.30
2022-10-04T23:48:39.595Z,10.30
2022-10-04T23:51:03.213Z,10.30
2022-10-04T23:53:29.809Z,10.20
2022-10-04T23:55:56.278Z,10.20
2022-10-04T23:58:22.642Z,10.20
